sensor_id;sensor_type;location;lat;lon;timestamp;pressure;altitude;pressure_sealevel;temperature;humidity
62617;BME280;62539;51.190;6.808;2023-04-23T00:01:00;100533.66;;;20.21;53.17
62617;BME280;62539;51.190;6.808;2023-04-23T00:03:31;100532.81;;;20.20;53.28
62617;BME280;62539;51.190;6.808;2023-04-23T00:05:58;100539.88;;;20.20;53.09
62617;BME280;62539;51.190;6.808;2023-04-23T00:08:28;100537.41;;;20.15;53.13
62617;BME280;62539;51.190;6.808;2023-04-23T00:10:54;100529.59;;;20.14;52.82
62617;BME280;62539;51.190;6.808;2023-04-23T00:13:20;100534.09;;;20.11;53.14
62617;BME280;62539;51.190;6.808;2023-04-23T00:15:46;100534.13;;;20.10;53.32
62617;BME280;62539;51.190;6.808;2023-04-23T00:18:12;100539.41;;;20.10;53.38
62617;BME280;62539;51.190;6.808;2023-04-23T00:20:37;100533.31;;;20.09;53.38
62617;BME280;62539;51.190;6.808;2023-04-23T00:23:03;100529.88;;;20.07;53.51
62617;BME280;62539;51.190;6.808;2023-04-23T00:25:28;100526.38;;;20.07;53.38
62617;BME280;62539;51.190;6.808;2023-04-23T00:27:54;100532.56;;;20.06;53.77
62617;BME280;62539;51.190;6.808;2023-04-23T00:30:19;100536.13;;;20.05;53.53
62617;BME280;62539;51.190;6.808;2023-04-23T00:32:45;100535.28;;;20.04;53.54
62617;BME280;62539;51.190;6.808;2023-04-23T00:35:10;100527.44;;;20.03;53.73
62617;BME280;62539;51.190;6.808;2023-04-23T00:37:35;100529.16;;;20.04;53.62
62617;BME280;62539;51.190;6.808;2023-04-23T00:40:01;100530.06;;;20.03;53.78
62617;BME280;62539;51.190;6.808;2023-04-23T00:42:28;100528.34;;;20.02;53.62
62617;BME280;62539;51.190;6.808;2023-04-23T00:44:54;100530.19;;;20.00;53.71
62617;BME280;62539;51.190;6.808;2023-04-23T00:47:21;100527.56;;;20.00;53.57
62617;BME280;62539;51.190;6.808;2023-04-23T00:49:48;100520.59;;;19.98;53.67
62617;BME280;62539;51.190;6.808;2023-04-23T00:52:15;100515.34;;;19.98;53.68
62617;BME280;62539;51.190;6.808;2023-04-23T00:54:41;100523.31;;;19.97;53.96
62617;BME280;62539;51.190;6.808;2023-04-23T00:57:06;100525.06;;;19.96;53.80
62617;BME280;62539;51.190;6.808;2023-04-23T00:59:32;100518.97;;;19.96;53.84
62617;BME280;62539;51.190;6.808;2023-04-23T01:01:58;100520.72;;;19.95;53.90
62617;BME280;62539;51.190;6.808;2023-04-23T01:04:26;100516.38;;;19.94;53.93
62617;BME280;62539;51.190;6.808;2023-04-23T01:06:55;100506.78;;;19.93;54.08
62617;BME280;62539;51.190;6.808;2023-04-23T01:09:22;100514.75;;;19.92;53.78
62617;BME280;62539;51.190;6.808;2023-04-23T01:11:48;100513.91;;;19.91;53.85
62617;BME280;62539;51.190;6.808;2023-04-23T01:14:15;100507.78;;;19.91;53.91
62617;BME280;62539;51.190;6.808;2023-04-23T01:16:41;100505.22;;;19.89;53.71
62617;BME280;62539;51.190;6.808;2023-04-23T01:19:08;100509.59;;;19.89;53.86
62617;BME280;62539;51.190;6.808;2023-04-23T01:21:36;100503.47;;;19.88;53.90
62617;BME280;62539;51.190;6.808;2023-04-23T01:24:05;100502.63;;;19.88;53.86
62617;BME280;62539;51.190;6.808;2023-04-23T01:26:31;100494.78;;;19.86;53.98
62617;BME280;62539;51.190;6.808;2023-04-23T01:28:58;100487.81;;;19.85;54.00
62617;BME280;62539;51.190;6.808;2023-04-23T01:31:24;100503.69;;;19.83;53.95
62617;BME280;62539;51.190;6.808;2023-04-23T01:33:50;100506.31;;;19.83;54.05
62617;BME280;62539;51.190;6.808;2023-04-23T01:36:18;100501.09;;;19.82;53.86
62617;BME280;62539;51.190;6.808;2023-04-23T01:38:44;100508.16;;;19.81;53.88
62617;BME280;62539;51.190;6.808;2023-04-23T01:41:10;100499.41;;;19.81;53.89
62617;BME280;62539;51.190;6.808;2023-04-23T01:43:36;100500.31;;;19.80;53.83
62617;BME280;62539;51.190;6.808;2023-04-23T01:46:02;100495.97;;;19.79;53.67
62617;BME280;62539;51.190;6.808;2023-04-23T01:48:27;100486.38;;;19.78;54.02
62617;BME280;62539;51.190;6.808;2023-04-23T01:50:53;100489.94;;;19.77;54.04
62617;BME280;62539;51.190;6.808;2023-04-23T01:53:19;100487.28;;;19.77;54.06
62617;BME280;62539;51.190;6.808;2023-04-23T01:55:45;100491.72;;;19.76;53.93
62617;BME280;62539;51.190;6.808;2023-04-23T01:58:12;100487.38;;;19.75;53.94
62617;BME280;62539;51.190;6.808;2023-04-23T02:00:38;100486.50;;;19.75;54.00
62617;BME280;62539;51.190;6.808;2023-04-23T02:03:03;100488.34;;;19.73;54.11
62617;BME280;62539;51.190;6.808;2023-04-23T02:05:33;100492.69;;;19.74;53.99
62617;BME280;62539;51.190;6.808;2023-04-23T02:08:00;100491.91;;;19.72;53.97
62617;BME280;62539;51.190;6.808;2023-04-23T02:10:26;100487.56;;;19.71;54.11
62617;BME280;62539;51.190;6.808;2023-04-23T02:12:51;100496.38;;;19.69;54.06
62617;BME280;62539;51.190;6.808;2023-04-23T02:15:17;100492.91;;;19.69;54.09
62617;BME280;62539;51.190;6.808;2023-04-23T02:17:44;100491.19;;;19.68;54.06
62617;BME280;62539;51.190;6.808;2023-04-23T02:20:10;100488.63;;;19.66;54.05
62617;BME280;62539;51.190;6.808;2023-04-23T02:22:40;100488.63;;;19.66;54.05
62617;BME280;62539;51.190;6.808;2023-04-23T02:25:06;100485.19;;;19.64;54.15
62617;BME280;62539;51.190;6.808;2023-04-23T02:27:33;100497.53;;;19.64;54.16
62617;BME280;62539;51.190;6.808;2023-04-23T02:29:59;100498.44;;;19.63;54.09
62617;BME280;62539;51.190;6.808;2023-04-23T02:32:25;100484.50;;;19.61;54.00
62617;BME280;62539;51.190;6.808;2023-04-23T02:34:52;100482.78;;;19.60;54.12
62617;BME280;62539;51.190;6.808;2023-04-23T02:37:18;100489.81;;;19.59;54.19
62617;BME280;62539;51.190;6.808;2023-04-23T02:39:43;100500.41;;;19.58;54.17
62617;BME280;62539;51.190;6.808;2023-04-23T02:42:09;100489.03;;;19.57;54.14
62617;BME280;62539;51.190;6.808;2023-04-23T02:44:35;100491.72;;;19.56;54.25
62617;BME280;62539;51.190;6.808;2023-04-23T02:47:01;100487.41;;;19.54;54.34
62617;BME280;62539;51.190;6.808;2023-04-23T02:49:26;100480.34;;;19.55;54.39
62617;BME280;62539;51.190;6.808;2023-04-23T02:51:51;100479.63;;;19.51;54.21
62617;BME280;62539;51.190;6.808;2023-04-23T02:54:17;100484.03;;;19.51;54.29
62617;BME280;62539;51.190;6.808;2023-04-23T02:56:42;100487.56;;;19.50;54.27
62617;BME280;62539;51.190;6.808;2023-04-23T02:59:08;100479.69;;;19.50;54.37
62617;BME280;62539;51.190;6.808;2023-04-23T03:01:33;100475.34;;;19.49;54.33
62617;BME280;62539;51.190;6.808;2023-04-23T03:03:59;100475.41;;;19.47;54.45
62617;BME280;62539;51.190;6.808;2023-04-23T03:06:25;100475.41;;;19.47;54.47
62617;BME280;62539;51.190;6.808;2023-04-23T03:08:51;100477.19;;;19.47;54.49
62617;BME280;62539;51.190;6.808;2023-04-23T03:11:16;100477.19;;;19.47;54.50
62617;BME280;62539;51.190;6.808;2023-04-23T03:13:41;100471.13;;;19.45;54.40
62617;BME280;62539;51.190;6.808;2023-04-23T03:16:07;100470.22;;;19.46;54.48
62617;BME280;62539;51.190;6.808;2023-04-23T03:18:33;100473.75;;;19.45;54.42
62617;BME280;62539;51.190;6.808;2023-04-23T03:20:59;100468.50;;;19.45;54.38
62617;BME280;62539;51.190;6.808;2023-04-23T03:23:24;100464.16;;;19.44;54.32
62617;BME280;62539;51.190;6.808;2023-04-23T03:25:49;100459.81;;;19.43;54.31
62617;BME280;62539;51.190;6.808;2023-04-23T03:28:15;100459.81;;;19.43;54.35
62617;BME280;62539;51.190;6.808;2023-04-23T03:30:40;100458.97;;;19.42;54.45
62617;BME280;62539;51.190;6.808;2023-04-23T03:33:06;100454.66;;;19.41;54.49
62617;BME280;62539;51.190;6.808;2023-04-23T03:35:31;100460.81;;;19.40;54.38
62617;BME280;62539;51.190;6.808;2023-04-23T03:37:57;100459.13;;;19.39;54.50
62617;BME280;62539;51.190;6.808;2023-04-23T03:40:22;100458.25;;;19.38;54.52
62617;BME280;62539;51.190;6.808;2023-04-23T03:42:48;100459.13;;;19.39;54.46
62617;BME280;62539;51.190;6.808;2023-04-23T03:45:14;100460.03;;;19.38;54.46
62617;BME280;62539;51.190;6.808;2023-04-23T03:47:41;100454.81;;;19.36;54.44
62617;BME280;62539;51.190;6.808;2023-04-23T03:50:07;100443.47;;;19.36;54.53
62617;BME280;62539;51.190;6.808;2023-04-23T03:52:33;100441.75;;;19.35;54.29
62617;BME280;62539;51.190;6.808;2023-04-23T03:54:59;100439.13;;;19.35;54.56
62617;BME280;62539;51.190;6.808;2023-04-23T03:57:25;100446.16;;;19.34;54.65
62617;BME280;62539;51.190;6.808;2023-04-23T03:59:50;100451.41;;;19.34;54.49
62617;BME280;62539;51.190;6.808;2023-04-23T04:02:16;100447.16;;;19.32;54.67
62617;BME280;62539;51.190;6.808;2023-04-23T04:04:42;100450.63;;;19.32;54.38
62617;BME280;62539;51.190;6.808;2023-04-23T04:07:10;100449.69;;;19.33;54.34
62617;BME280;62539;51.190;6.808;2023-04-23T04:09:36;100454.81;;;19.36;53.99
62617;BME280;62539;51.190;6.808;2023-04-23T04:12:03;100450.31;;;19.40;53.91
62617;BME280;62539;51.190;6.808;2023-04-23T04:14:30;100452.72;;;19.45;53.70
62617;BME280;62539;51.190;6.808;2023-04-23T04:16:56;100443.78;;;19.49;53.85
62617;BME280;62539;51.190;6.808;2023-04-23T04:19:22;100443.50;;;19.55;53.78
62617;BME280;62539;51.190;6.808;2023-04-23T04:21:47;100446.78;;;19.60;53.86
62617;BME280;62539;51.190;6.808;2023-04-23T04:24:13;100440.47;;;19.64;53.72
62617;BME280;62539;51.190;6.808;2023-04-23T04:26:39;100444.66;;;19.68;53.87
62617;BME280;62539;51.190;6.808;2023-04-23T04:29:05;100445.41;;;19.72;54.00
62617;BME280;62539;51.190;6.808;2023-04-23T04:31:31;100438.22;;;19.76;54.09
62617;BME280;62539;51.190;6.808;2023-04-23T04:33:57;100432.75;;;19.80;54.18
62617;BME280;62539;51.190;6.808;2023-04-23T04:36:23;100440.44;;;19.85;54.31
62617;BME280;62539;51.190;6.808;2023-04-23T04:38:51;100430.69;;;19.87;54.12
62617;BME280;62539;51.190;6.808;2023-04-23T04:41:20;100434.91;;;19.91;54.18
62617;BME280;62539;51.190;6.808;2023-04-23T04:43:47;100443.59;;;19.93;53.87
62617;BME280;62539;51.190;6.808;2023-04-23T04:46:13;100445.31;;;19.94;54.05
62617;BME280;62539;51.190;6.808;2023-04-23T04:48:39;100450.53;;;19.96;54.07
62617;BME280;62539;51.190;6.808;2023-04-23T04:51:05;100450.44;;;19.97;53.73
62617;BME280;62539;51.190;6.808;2023-04-23T04:53:31;100458.28;;;19.99;53.43
62617;BME280;62539;51.190;6.808;2023-04-23T04:55:56;100460.81;;;20.01;53.72
62617;BME280;62539;51.190;6.808;2023-04-23T04:58:22;100460.69;;;20.04;53.90
62617;BME280;62539;51.190;6.808;2023-04-23T05:00:47;100457.13;;;20.05;53.78
62617;BME280;62539;51.190;6.808;2023-04-23T05:03:20;100467.59;;;20.06;53.44
62617;BME280;62539;51.190;6.808;2023-04-23T05:05:45;100464.09;;;20.06;53.69
62617;BME280;62539;51.190;6.808;2023-04-23T05:08:12;100462.25;;;20.08;53.74
62617;BME280;62539;51.190;6.808;2023-04-23T05:10:43;100456.00;;;20.10;53.58
62617;BME280;62539;51.190;6.808;2023-04-23T05:13:09;100461.19;;;20.12;53.44
62617;BME280;62539;51.190;6.808;2023-04-23T05:15:35;100461.97;;;20.14;53.66
62617;BME280;62539;51.190;6.808;2023-04-23T05:18:04;100459.19;;;20.17;53.65
62617;BME280;62539;51.190;6.808;2023-04-23T05:20:30;100462.63;;;20.19;53.63
62617;BME280;62539;51.190;6.808;2023-04-23T05:22:55;100458.13;;;20.21;53.73
62617;BME280;62539;51.190;6.808;2023-04-23T05:25:23;100459.84;;;20.22;53.70
62617;BME280;62539;51.190;6.808;2023-04-23T05:27:49;100451.78;;;20.25;53.90
62617;BME280;62539;51.190;6.808;2023-04-23T05:30:15;100458.72;;;20.28;53.88
62617;BME280;62539;51.190;6.808;2023-04-23T05:32:40;100455.22;;;20.27;53.36
62617;BME280;62539;51.190;6.808;2023-04-23T05:35:06;100457.00;;;20.27;53.38
62617;BME280;62539;51.190;6.808;2023-04-23T05:37:32;100452.56;;;20.27;53.39
62617;BME280;62539;51.190;6.808;2023-04-23T05:39:57;100458.78;;;20.26;53.26
62617;BME280;62539;51.190;6.808;2023-04-23T05:42:23;100449.09;;;20.27;53.20
62617;BME280;62539;51.190;6.808;2023-04-23T05:44:49;100456.13;;;20.26;53.51
62617;BME280;62539;51.190;6.808;2023-04-23T05:47:14;100460.56;;;20.26;53.39
62617;BME280;62539;51.190;6.808;2023-04-23T05:49:40;100460.63;;;20.24;53.31
62617;BME280;62539;51.190;6.808;2023-04-23T05:52:06;100463.25;;;20.24;53.33
62617;BME280;62539;51.190;6.808;2023-04-23T05:54:31;100463.25;;;20.24;53.19
62617;BME280;62539;51.190;6.808;2023-04-23T05:56:57;100468.53;;;20.24;53.38
62617;BME280;62539;51.190;6.808;2023-04-23T05:59:23;100463.25;;;20.24;53.32
62617;BME280;62539;51.190;6.808;2023-04-23T06:01:49;100462.41;;;20.24;53.30
62617;BME280;62539;51.190;6.808;2023-04-23T06:04:15;100453.59;;;20.25;53.16
62617;BME280;62539;51.190;6.808;2023-04-23T06:06:44;100461.41;;;20.26;53.28
62617;BME280;62539;51.190;6.808;2023-04-23T06:09:09;100459.56;;;20.29;53.25
62617;BME280;62539;51.190;6.808;2023-04-23T06:11:34;100450.72;;;20.30;53.15
62617;BME280;62539;51.190;6.808;2023-04-23T06:14:01;100450.56;;;20.33;53.08
62617;BME280;62539;51.190;6.808;2023-04-23T06:16:27;100450.44;;;20.36;53.11
62617;BME280;62539;51.190;6.808;2023-04-23T06:18:53;100456.56;;;20.36;53.05
62617;BME280;62539;51.190;6.808;2023-04-23T06:21:20;100455.56;;;20.39;52.94
62617;BME280;62539;51.190;6.808;2023-04-23T06:23:46;100450.28;;;20.39;53.05
62617;BME280;62539;51.190;6.808;2023-04-23T06:26:12;100458.97;;;20.41;52.85
62617;BME280;62539;51.190;6.808;2023-04-23T06:28:37;100449.31;;;20.41;52.95
62617;BME280;62539;51.190;6.808;2023-04-23T06:31:03;100458.03;;;20.42;52.70
62617;BME280;62539;51.190;6.808;2023-04-23T06:33:29;100447.44;;;20.44;52.80
62617;BME280;62539;51.190;6.808;2023-04-23T06:35:55;100454.44;;;20.45;52.93
62617;BME280;62539;51.190;6.808;2023-04-23T06:38:20;100454.44;;;20.45;52.90
62617;BME280;62539;51.190;6.808;2023-04-23T06:40:47;100453.41;;;20.47;53.00
62617;BME280;62539;51.190;6.808;2023-04-23T06:43:12;100455.91;;;20.50;53.12
62617;BME280;62539;51.190;6.808;2023-04-23T06:45:38;100454.91;;;20.53;52.85
62617;BME280;62539;51.190;6.808;2023-04-23T06:48:04;100452.13;;;20.56;53.02
62617;BME280;62539;51.190;6.808;2023-04-23T06:50:30;100453.84;;;20.57;53.11
62617;BME280;62539;51.190;6.808;2023-04-23T06:52:55;100459.81;;;20.61;52.97
62617;BME280;62539;51.190;6.808;2023-04-23T06:55:21;100450.97;;;20.62;52.56
62617;BME280;62539;51.190;6.808;2023-04-23T06:57:50;100447.41;;;20.63;52.77
62617;BME280;62539;51.190;6.808;2023-04-23T07:00:21;100440.28;;;20.65;52.89
62617;BME280;62539;51.190;6.808;2023-04-23T07:02:47;100441.97;;;20.66;52.68
62617;BME280;62539;51.190;6.808;2023-04-23T07:05:12;100440.13;;;20.68;53.08
62617;BME280;62539;51.190;6.808;2023-04-23T07:07:39;100437.44;;;20.69;52.89
62617;BME280;62539;51.190;6.808;2023-04-23T07:10:07;100437.34;;;20.71;53.13
62617;BME280;62539;51.190;6.808;2023-04-23T07:12:35;100428.50;;;20.72;52.55
62617;BME280;62539;51.190;6.808;2023-04-23T07:15:02;100424.00;;;20.74;52.79
62617;BME280;62539;51.190;6.808;2023-04-23T07:17:28;100417.81;;;20.75;52.99
62617;BME280;62539;51.190;6.808;2023-04-23T07:19:53;100420.38;;;20.77;52.86
62617;BME280;62539;51.190;6.808;2023-04-23T07:22:18;100422.03;;;20.79;52.72
62617;BME280;62539;51.190;6.808;2023-04-23T07:24:44;100423.75;;;20.80;52.85
62617;BME280;62539;51.190;6.808;2023-04-23T07:27:09;100415.78;;;20.82;52.63
62617;BME280;62539;51.190;6.808;2023-04-23T07:29:35;100416.59;;;20.82;52.69
62617;BME280;62539;51.190;6.808;2023-04-23T07:32:00;100420.03;;;20.84;52.48
62617;BME280;62539;51.190;6.808;2023-04-23T07:34:26;100420.81;;;20.87;52.54
62617;BME280;62539;51.190;6.808;2023-04-23T07:36:51;100418.88;;;20.90;52.62
62617;BME280;62539;51.190;6.808;2023-04-23T07:39:17;100419.66;;;20.92;52.34
62617;BME280;62539;51.190;6.808;2023-04-23T07:41:42;100412.59;;;20.93;52.63
62617;BME280;62539;51.190;6.808;2023-04-23T07:44:08;100413.34;;;20.95;52.83
62617;BME280;62539;51.190;6.808;2023-04-23T07:46:33;100409.78;;;20.96;52.61
62617;BME280;62539;51.190;6.808;2023-04-23T07:48:59;100411.44;;;20.98;52.89
62617;BME280;62539;51.190;6.808;2023-04-23T07:51:24;100405.28;;;20.98;52.61
62617;BME280;62539;51.190;6.808;2023-04-23T07:53:52;100407.00;;;20.99;52.91
62617;BME280;62539;51.190;6.808;2023-04-23T07:56:19;100403.44;;;21.00;52.59
62617;BME280;62539;51.190;6.808;2023-04-23T07:58:48;100391.94;;;21.01;52.92
62617;BME280;62539;51.190;6.808;2023-04-23T08:01:15;100401.56;;;21.02;52.78
62617;BME280;62539;51.190;6.808;2023-04-23T08:03:41;100393.59;;;21.04;52.83
62617;BME280;62539;51.190;6.808;2023-04-23T08:06:06;100391.78;;;21.04;53.02
62617;BME280;62539;51.190;6.808;2023-04-23T08:08:34;100385.59;;;21.05;52.81
62617;BME280;62539;51.190;6.808;2023-04-23T08:10:59;100390.88;;;21.05;52.35
62617;BME280;62539;51.190;6.808;2023-04-23T08:13:25;100387.28;;;21.06;52.38
62617;BME280;62539;51.190;6.808;2023-04-23T08:15:50;100385.44;;;21.08;52.67
62617;BME280;62539;51.190;6.808;2023-04-23T08:18:16;100380.94;;;21.10;52.21
62617;BME280;62539;51.190;6.808;2023-04-23T08:20:42;100392.25;;;21.12;52.31
62617;BME280;62539;51.190;6.808;2023-04-23T08:23:07;100384.28;;;21.14;52.48
62617;BME280;62539;51.190;6.808;2023-04-23T08:25:33;100391.31;;;21.13;52.25
62617;BME280;62539;51.190;6.808;2023-04-23T08:27:58;100388.69;;;21.13;52.29
62617;BME280;62539;51.190;6.808;2023-04-23T08:30:24;100379.94;;;21.13;52.48
62617;BME280;62539;51.190;6.808;2023-04-23T08:32:51;100385.13;;;21.14;52.20
62617;BME280;62539;51.190;6.808;2023-04-23T08:35:20;100384.03;;;21.19;52.34
62617;BME280;62539;51.190;6.808;2023-04-23T08:37:47;100377.72;;;21.21;52.39
62617;BME280;62539;51.190;6.808;2023-04-23T08:40:12;100386.25;;;21.26;52.14
62617;BME280;62539;51.190;6.808;2023-04-23T08:42:56;100379.97;;;21.29;51.97
62617;BME280;62539;51.190;6.808;2023-04-23T08:45:25;100378.00;;;21.33;51.78
62617;BME280;62539;51.190;6.808;2023-04-23T08:47:51;100381.44;;;21.35;51.79
62617;BME280;62539;51.190;6.808;2023-04-23T08:50:22;100380.44;;;21.37;52.08
62617;BME280;62539;51.190;6.808;2023-04-23T08:52:52;100380.25;;;21.40;51.98
62617;BME280;62539;51.190;6.808;2023-04-23T08:55:19;100369.44;;;21.45;51.67
62617;BME280;62539;51.190;6.808;2023-04-23T08:57:47;100369.22;;;21.50;51.80
62617;BME280;62539;51.190;6.808;2023-04-23T09:00:15;100368.88;;;21.56;51.85
62617;BME280;62539;51.190;6.808;2023-04-23T09:02:46;100378.22;;;21.63;51.58
62617;BME280;62539;51.190;6.808;2023-04-23T09:05:13;100378.72;;;21.70;51.57
62617;BME280;62539;51.190;6.808;2023-04-23T09:07:39;100372.34;;;21.74;51.56
62617;BME280;62539;51.190;6.808;2023-04-23T09:10:06;100363.31;;;21.78;51.45
62617;BME280;62539;51.190;6.808;2023-04-23T09:12:34;100355.22;;;21.81;51.45
62617;BME280;62539;51.190;6.808;2023-04-23T09:15:03;100364.00;;;21.82;51.34
62617;BME280;62539;51.190;6.808;2023-04-23T09:17:38;100360.44;;;21.83;51.51
62617;BME280;62539;51.190;6.808;2023-04-23T09:20:08;100354.13;;;21.85;51.76
62617;BME280;62539;51.190;6.808;2023-04-23T09:22:41;100358.41;;;21.88;51.86
62617;BME280;62539;51.190;6.808;2023-04-23T09:25:10;100355.66;;;21.90;51.77
62617;BME280;62539;51.190;6.808;2023-04-23T09:27:37;100353.88;;;21.90;51.46
62617;BME280;62539;51.190;6.808;2023-04-23T09:30:07;100350.13;;;21.94;51.58
62617;BME280;62539;51.190;6.808;2023-04-23T09:32:38;100354.47;;;21.95;51.11
62617;BME280;62539;51.190;6.808;2023-04-23T09:35:09;100349.09;;;21.97;51.38
62617;BME280;62539;51.190;6.808;2023-04-23T09:37:40;100349.88;;;21.99;51.38
62617;BME280;62539;51.190;6.808;2023-04-23T09:40:12;100346.97;;;22.03;51.11
62617;BME280;62539;51.190;6.808;2023-04-23T09:42:39;100341.53;;;22.07;51.41
62617;BME280;62539;51.190;6.808;2023-04-23T09:45:07;100336.06;;;22.10;51.29
62617;BME280;62539;51.190;6.808;2023-04-23T09:47:55;100329.84;;;22.11;50.98
62617;BME280;62539;51.190;6.808;2023-04-23T09:50:34;100327.03;;;22.14;50.98
62617;BME280;62539;51.190;6.808;2023-04-23T09:53:04;100328.63;;;22.16;50.89
62617;BME280;62539;51.190;6.808;2023-04-23T09:55:32;100321.56;;;22.17;51.27
62617;BME280;62539;51.190;6.808;2023-04-23T09:58:11;100322.59;;;22.14;51.22
62617;BME280;62539;51.190;6.808;2023-04-23T10:00:40;100317.41;;;22.13;51.15
62617;BME280;62539;51.190;6.808;2023-04-23T10:03:07;100313.06;;;22.12;51.00
62617;BME280;62539;51.190;6.808;2023-04-23T10:05:38;100311.34;;;22.11;50.96
62617;BME280;62539;51.190;6.808;2023-04-23T10:08:05;100305.22;;;22.10;51.37
62617;BME280;62539;51.190;6.808;2023-04-23T10:10:33;100294.63;;;22.10;51.06
62617;BME280;62539;51.190;6.808;2023-04-23T10:12:59;100301.72;;;22.10;51.67
62617;BME280;62539;51.190;6.808;2023-04-23T10:15:25;100299.94;;;22.10;50.94
62617;BME280;62539;51.190;6.808;2023-04-23T10:17:52;100292.88;;;22.11;51.34
62617;BME280;62539;51.190;6.808;2023-04-23T10:20:19;100302.50;;;22.12;51.17
62617;BME280;62539;51.190;6.808;2023-04-23T10:22:47;100288.34;;;22.13;51.25
62617;BME280;62539;51.190;6.808;2023-04-23T10:25:14;100298.75;;;22.16;50.89
62617;BME280;62539;51.190;6.808;2023-04-23T10:27:42;100287.13;;;22.18;50.92
62617;BME280;62539;51.190;6.808;2023-04-23T10:30:10;100281.66;;;22.22;50.67
62617;BME280;62539;51.190;6.808;2023-04-23T10:32:37;100286.94;;;22.22;50.88
62617;BME280;62539;51.190;6.808;2023-04-23T10:35:04;100293.09;;;22.22;50.93
62617;BME280;62539;51.190;6.808;2023-04-23T10:37:32;100283.66;;;22.18;50.88
62617;BME280;62539;51.190;6.808;2023-04-23T10:40:08;100288.16;;;22.16;51.03
62617;BME280;62539;51.190;6.808;2023-04-23T10:42:38;100284.59;;;22.17;51.15
62617;BME280;62539;51.190;6.808;2023-04-23T10:45:15;100281.19;;;22.15;51.17
62617;BME280;62539;51.190;6.808;2023-04-23T10:47:43;100280.25;;;22.16;50.94
62617;BME280;62539;51.190;6.808;2023-04-23T10:50:23;100271.56;;;22.14;51.06
62617;BME280;62539;51.190;6.808;2023-04-23T10:52:50;100275.91;;;22.15;51.27
62617;BME280;62539;51.190;6.808;2023-04-23T10:55:25;100273.16;;;22.16;51.18
62617;BME280;62539;51.190;6.808;2023-04-23T10:58:06;100277.69;;;22.14;50.88
62617;BME280;62539;51.190;6.808;2023-04-23T11:03:35;100272.91;;;22.21;51.00
62617;BME280;62539;51.190;6.808;2023-04-23T11:06:06;100271.78;;;22.25;51.04
62617;BME280;62539;51.190;6.808;2023-04-23T11:08:35;100280.38;;;22.29;50.56
62617;BME280;62539;51.190;6.808;2023-04-23T11:11:05;100272.25;;;22.32;50.50
62617;BME280;62539;51.190;6.808;2023-04-23T11:13:31;100260.50;;;22.38;50.44
62617;BME280;62539;51.190;6.808;2023-04-23T11:16:29;100260.13;;;22.44;50.39
62617;BME280;62539;51.190;6.808;2023-04-23T11:19:01;100251.59;;;22.55;50.30
62617;BME280;62539;51.190;6.808;2023-04-23T11:22:06;100253.28;;;22.56;50.19
62617;BME280;62539;51.190;6.808;2023-04-23T11:24:42;100241.13;;;22.53;50.06
62617;BME280;62539;51.190;6.808;2023-04-23T11:27:12;100237.72;;;22.51;50.15
62617;BME280;62539;51.190;6.808;2023-04-23T11:29:45;100235.34;;;22.46;50.56
62617;BME280;62539;51.190;6.808;2023-04-23T11:32:14;100237.66;;;22.37;50.25
62617;BME280;62539;51.190;6.808;2023-04-23T11:34:43;100235.09;;;22.35;50.32
62617;BME280;62539;51.190;6.808;2023-04-23T11:37:13;100229.16;;;22.31;50.71
62617;BME280;62539;51.190;6.808;2023-04-23T11:39:40;100225.75;;;22.29;50.71
62617;BME280;62539;51.190;6.808;2023-04-23T11:42:14;100211.78;;;22.27;50.45
62617;BME280;62539;51.190;6.808;2023-04-23T11:44:43;100211.59;;;22.30;50.74
62617;BME280;62539;51.190;6.808;2023-04-23T11:47:11;100206.78;;;22.37;50.64
62617;BME280;62539;51.190;6.808;2023-04-23T11:49:38;100202.78;;;22.46;50.54
62617;BME280;62539;51.190;6.808;2023-04-23T11:52:07;100201.94;;;22.60;49.73
62617;BME280;62539;51.190;6.808;2023-04-23T11:54:33;100195.91;;;22.72;49.56
62617;BME280;62539;51.190;6.808;2023-04-23T11:56:59;100199.09;;;22.78;49.50
62617;BME280;62539;51.190;6.808;2023-04-23T11:59:25;100198.72;;;22.84;49.47
62617;BME280;62539;51.190;6.808;2023-04-23T12:01:54;100192.22;;;22.89;49.28
62617;BME280;62539;51.190;6.808;2023-04-23T12:04:22;100187.50;;;22.95;48.98
62617;BME280;62539;51.190;6.808;2023-04-23T12:06:56;100191.84;;;22.96;48.88
62617;BME280;62539;51.190;6.808;2023-04-23T12:09:24;100183.03;;;22.95;48.98
62617;BME280;62539;51.190;6.808;2023-04-23T12:11:51;100179.56;;;22.95;49.24
62617;BME280;62539;51.190;6.808;2023-04-23T12:14:24;100177.69;;;22.97;49.16
62617;BME280;62539;51.190;6.808;2023-04-23T12:16:53;100184.16;;;23.05;49.12
62617;BME280;62539;51.190;6.808;2023-04-23T12:19:29;100161.78;;;23.11;48.80
62617;BME280;62539;51.190;6.808;2023-04-23T12:22:00;100165.06;;;23.15;47.68
62617;BME280;62539;51.190;6.808;2023-04-23T12:24:47;100157.69;;;23.20;48.23
62617;BME280;62539;51.190;6.808;2023-04-23T12:27:18;100154.41;;;23.16;48.53
62617;BME280;62539;51.190;6.808;2023-04-23T12:29:45;100148.34;;;23.14;48.66
62617;BME280;62539;51.190;6.808;2023-04-23T12:32:12;100145.94;;;23.39;48.02
62617;BME280;62539;51.190;6.808;2023-04-23T12:34:52;100147.53;;;23.69;47.52
62617;BME280;62539;51.190;6.808;2023-04-23T12:37:29;100148.31;;;23.97;47.20
62617;BME280;62539;51.190;6.808;2023-04-23T12:39:55;100141.91;;;24.14;46.33
62617;BME280;62539;51.190;6.808;2023-04-23T12:42:23;100140.19;;;24.13;46.35
62617;BME280;62539;51.190;6.808;2023-04-23T12:44:49;100140.41;;;24.35;45.65
62617;BME280;62539;51.190;6.808;2023-04-23T12:47:15;100144.44;;;24.28;45.56
62617;BME280;62539;51.190;6.808;2023-04-23T12:49:44;100139.38;;;24.25;45.89
62617;BME280;62539;51.190;6.808;2023-04-23T12:52:10;100135.78;;;24.39;45.59
62617;BME280;62539;51.190;6.808;2023-04-23T12:54:38;100139.44;;;24.62;45.24